sensor_id;sensor_type;location;lat;lon;timestamp;P1;durP1;ratioP1;P2;durP2;ratioP2
63444;SDS011;49573;47.682;9.170;2024-01-30T13:50:58;11.80;;;9.87;;
63444;SDS011;49573;47.682;9.170;2024-01-30T13:53:44;10.77;;;9.68;;
63444;SDS011;49573;47.682;9.170;2024-01-30T13:56:31;11.73;;;8.65;;
63444;SDS011;49573;47.682;9.170;2024-01-30T13:59:17;10.40;;;9.30;;
63444;SDS011;49573;47.682;9.170;2024-01-30T14:02:08;10.50;;;9.45;;
63444;SDS011;49573;47.682;9.170;2024-01-30T14:07:42;10.50;;;9.00;;
63444;SDS011;49573;47.682;9.170;2024-01-30T14:10:29;10.05;;;8.35;;
63444;SDS011;49573;47.682;9.170;2024-01-30T14:13:15;10.18;;;8.40;;
63444;SDS011;49573;47.682;9.170;2024-01-30T14:16:01;10.03;;;8.80;;
63444;SDS011;49573;47.682;9.170;2024-01-30T14:18:47;9.73;;;8.45;;
63444;SDS011;49573;47.682;9.170;2024-01-30T14:21:33;13.37;;;8.90;;
63444;SDS011;49573;47.682;9.170;2024-01-30T14:24:21;10.38;;;8.50;;
63444;SDS011;49573;47.682;9.170;2024-01-30T14:27:07;10.65;;;8.85;;
63444;SDS011;49573;47.682;9.170;2024-01-30T14:29:55;11.00;;;8.93;;
63444;SDS011;49573;47.682;9.170;2024-01-30T14:32:41;12.48;;;9.50;;
63444;SDS011;49573;47.682;9.170;2024-01-30T14:35:29;10.57;;;9.48;;
63444;SDS011;49573;47.682;9.170;2024-01-30T14:38:15;12.75;;;9.90;;
63444;SDS011;49573;47.682;9.170;2024-01-30T14:41:03;10.35;;;8.50;;
63444;SDS011;49573;47.682;9.170;2024-01-30T14:43:50;10.18;;;8.95;;
63444;SDS011;49573;47.682;9.170;2024-01-30T14:46:36;13.27;;;9.82;;
63444;SDS011;49573;47.682;9.170;2024-01-30T14:49:22;9.95;;;8.43;;
63444;SDS011;49573;47.682;9.170;2024-01-30T14:52:08;10.27;;;8.17;;
63444;SDS011;49573;47.682;9.170;2024-01-30T14:54:56;11.20;;;8.20;;
63444;SDS011;49573;47.682;9.170;2024-01-30T14:57:43;10.45;;;8.85;;
63444;SDS011;49573;47.682;9.170;2024-01-30T15:00:31;11.32;;;8.85;;
63444;SDS011;49573;47.682;9.170;2024-01-30T15:03:17;14.17;;;9.77;;
63444;SDS011;49573;47.682;9.170;2024-01-30T15:06:03;11.38;;;9.02;;
63444;SDS011;49573;47.682;9.170;2024-01-30T15:08:50;11.55;;;9.05;;
63444;SDS011;49573;47.682;9.170;2024-01-30T15:11:36;11.47;;;9.03;;
63444;SDS011;49573;47.682;9.170;2024-01-30T15:14:24;12.55;;;8.73;;
63444;SDS011;49573;47.682;9.170;2024-01-30T15:17:10;11.65;;;9.07;;
63444;SDS011;49573;47.682;9.170;2024-01-30T15:19:56;14.30;;;9.67;;
63444;SDS011;49573;47.682;9.170;2024-01-30T15:22:43;12.27;;;9.02;;
63444;SDS011;49573;47.682;9.170;2024-01-30T15:25:30;12.38;;;9.30;;
63444;SDS011;49573;47.682;9.170;2024-01-30T15:28:16;14.38;;;9.55;;
63444;SDS011;49573;47.682;9.170;2024-01-30T15:31:04;11.75;;;9.27;;
63444;SDS011;49573;47.682;9.170;2024-01-30T15:33:50;14.00;;;9.30;;
63444;SDS011;49573;47.682;9.170;2024-01-30T15:36:36;11.77;;;9.07;;
63444;SDS011;49573;47.682;9.170;2024-01-30T15:39:22;12.88;;;9.25;;
63444;SDS011;49573;47.682;9.170;2024-01-30T15:42:09;15.13;;;10.23;;
63444;SDS011;49573;47.682;9.170;2024-01-30T15:44:55;13.80;;;9.50;;
63444;SDS011;49573;47.682;9.170;2024-01-30T15:47:42;12.85;;;9.10;;
63444;SDS011;49573;47.682;9.170;2024-01-30T15:50:28;13.93;;;8.55;;
63444;SDS011;49573;47.682;9.170;2024-01-30T15:53:14;12.02;;;9.15;;
63444;SDS011;49573;47.682;9.170;2024-01-30T15:56:00;12.50;;;8.73;;
63444;SDS011;49573;47.682;9.170;2024-01-30T15:58:47;13.00;;;8.93;;
63444;SDS011;49573;47.682;9.170;2024-01-30T16:01:37;14.48;;;9.27;;
63444;SDS011;49573;47.682;9.170;2024-01-30T16:04:24;14.93;;;9.70;;
63444;SDS011;49573;47.682;9.170;2024-01-30T16:07:10;14.82;;;9.65;;
63444;SDS011;49573;47.682;9.170;2024-01-30T16:09:56;14.13;;;9.85;;
63444;SDS011;49573;47.682;9.170;2024-01-30T16:12:43;12.65;;;8.95;;
63444;SDS011;49573;47.682;9.170;2024-01-30T16:15:32;15.88;;;10.52;;
63444;SDS011;49573;47.682;9.170;2024-01-30T16:18:18;22.15;;;13.75;;
63444;SDS011;49573;47.682;9.170;2024-01-30T16:21:05;29.48;;;17.88;;
63444;SDS011;49573;47.682;9.170;2024-01-30T16:23:51;26.95;;;14.57;;
63444;SDS011;49573;47.682;9.170;2024-01-30T16:26:39;16.05;;;11.20;;
63444;SDS011;49573;47.682;9.170;2024-01-30T16:29:25;16.65;;;10.70;;
63444;SDS011;49573;47.682;9.170;2024-01-30T16:32:11;17.88;;;11.50;;
63444;SDS011;49573;47.682;9.170;2024-01-30T16:34:57;18.95;;;11.60;;
63444;SDS011;49573;47.682;9.170;2024-01-30T16:37:45;17.73;;;11.40;;
63444;SDS011;49573;47.682;9.170;2024-01-30T16:40:31;14.80;;;10.35;;
63444;SDS011;49573;47.682;9.170;2024-01-30T16:43:19;15.52;;;9.88;;
63444;SDS011;49573;47.682;9.170;2024-01-30T16:46:05;16.83;;;10.18;;
63444;SDS011;49573;47.682;9.170;2024-01-30T16:48:51;13.93;;;10.20;;
63444;SDS011;49573;47.682;9.170;2024-01-30T16:51:37;17.48;;;10.68;;
63444;SDS011;49573;47.682;9.170;2024-01-30T16:54:24;13.20;;;9.43;;
63444;SDS011;49573;47.682;9.170;2024-01-30T16:57:10;13.85;;;9.23;;
63444;SDS011;49573;47.682;9.170;2024-01-30T16:59:56;18.30;;;11.82;;
63444;SDS011;49573;47.682;9.170;2024-01-30T17:02:42;23.55;;;12.95;;
63444;SDS011;49573;47.682;9.170;2024-01-30T17:05:30;25.52;;;14.52;;
63444;SDS011;49573;47.682;9.170;2024-01-30T17:08:16;20.43;;;13.00;;
63444;SDS011;49573;47.682;9.170;2024-01-30T17:11:04;21.00;;;12.43;;
63444;SDS011;49573;47.682;9.170;2024-01-30T17:13:50;20.35;;;11.52;;
63444;SDS011;49573;47.682;9.170;2024-01-30T17:16:36;20.80;;;12.73;;
63444;SDS011;49573;47.682;9.170;2024-01-30T17:19:22;22.13;;;12.27;;
63444;SDS011;49573;47.682;9.170;2024-01-30T17:22:08;15.43;;;10.57;;
63444;SDS011;49573;47.682;9.170;2024-01-30T17:24:54;16.45;;;10.82;;
63444;SDS011;49573;47.682;9.170;2024-01-30T17:27:41;17.85;;;11.25;;
63444;SDS011;49573;47.682;9.170;2024-01-30T17:30:27;15.57;;;10.23;;
63444;SDS011;49573;47.682;9.170;2024-01-30T17:33:13;16.35;;;10.88;;
63444;SDS011;49573;47.682;9.170;2024-01-30T17:36:00;15.52;;;10.52;;
63444;SDS011;49573;47.682;9.170;2024-01-30T17:38:48;18.27;;;11.02;;
63444;SDS011;49573;47.682;9.170;2024-01-30T17:41:34;15.68;;;10.20;;
63444;SDS011;49573;47.682;9.170;2024-01-30T17:44:23;16.45;;;10.05;;
63444;SDS011;49573;47.682;9.170;2024-01-30T17:47:09;18.40;;;10.73;;
63444;SDS011;49573;47.682;9.170;2024-01-30T17:49:56;16.92;;;11.27;;
63444;SDS011;49573;47.682;9.170;2024-01-30T17:52:42;18.92;;;10.98;;
63444;SDS011;49573;47.682;9.170;2024-01-30T17:55:28;16.27;;;11.13;;
63444;SDS011;49573;47.682;9.170;2024-01-30T17:58:14;16.75;;;10.18;;
63444;SDS011;49573;47.682;9.170;2024-01-30T18:01:02;24.90;;;12.07;;
63444;SDS011;49573;47.682;9.170;2024-01-30T18:03:48;18.67;;;11.77;;
63444;SDS011;49573;47.682;9.170;2024-01-30T18:06:37;18.95;;;10.63;;
63444;SDS011;49573;47.682;9.170;2024-01-30T18:09:23;15.60;;;10.20;;
63444;SDS011;49573;47.682;9.170;2024-01-30T18:12:10;21.67;;;11.50;;
63444;SDS011;49573;47.682;9.170;2024-01-30T18:17:45;17.05;;;11.15;;
63444;SDS011;49573;47.682;9.170;2024-01-30T18:20:31;15.73;;;10.25;;
63444;SDS011;49573;47.682;9.170;2024-01-30T18:23:17;16.23;;;9.88;;
63444;SDS011;49573;47.682;9.170;2024-01-30T18:26:03;15.03;;;10.17;;
63444;SDS011;49573;47.682;9.170;2024-01-30T18:28:50;14.88;;;9.85;;
63444;SDS011;49573;47.682;9.170;2024-01-30T18:31:35;11.80;;;8.30;;
63444;SDS011;49573;47.682;9.170;2024-01-30T18:34:27;14.60;;;9.32;;
63444;SDS011;49573;47.682;9.170;2024-01-30T18:37:13;14.93;;;10.05;;
63444;SDS011;49573;47.682;9.170;2024-01-30T18:39:59;14.43;;;9.10;;
63444;SDS011;49573;47.682;9.170;2024-01-30T18:42:45;12.95;;;8.75;;
63444;SDS011;49573;47.682;9.170;2024-01-30T18:45:31;13.38;;;9.18;;
63444;SDS011;49573;47.682;9.170;2024-01-30T18:48:18;12.60;;;8.57;;
63444;SDS011;49573;47.682;9.170;2024-01-30T18:51:05;12.05;;;8.13;;
63444;SDS011;49573;47.682;9.170;2024-01-30T18:53:52;12.35;;;8.77;;
63444;SDS011;49573;47.682;9.170;2024-01-30T18:56:38;11.88;;;7.95;;
63444;SDS011;49573;47.682;9.170;2024-01-30T18:59:24;11.40;;;8.38;;
63444;SDS011;49573;47.682;9.170;2024-01-30T19:02:11;12.20;;;7.53;;
63444;SDS011;49573;47.682;9.170;2024-01-30T19:04:57;12.47;;;8.40;;
63444;SDS011;49573;47.682;9.170;2024-01-30T19:07:45;12.43;;;8.13;;
63444;SDS011;49573;47.682;9.170;2024-01-30T19:10:34;11.82;;;8.45;;
63444;SDS011;49573;47.682;9.170;2024-01-30T19:13:20;10.30;;;7.47;;
63444;SDS011;49573;47.682;9.170;2024-01-30T19:16:07;10.50;;;7.88;;
63444;SDS011;49573;47.682;9.170;2024-01-30T19:18:53;12.03;;;8.17;;
63444;SDS011;49573;47.682;9.170;2024-01-30T19:21:39;10.38;;;7.05;;
63444;SDS011;49573;47.682;9.170;2024-01-30T19:24:27;15.27;;;8.25;;
63444;SDS011;49573;47.682;9.170;2024-01-30T19:27:13;10.15;;;7.25;;
63444;SDS011;49573;47.682;9.170;2024-01-30T19:29:59;9.80;;;7.40;;
63444;SDS011;49573;47.682;9.170;2024-01-30T19:32:45;10.60;;;7.07;;
63444;SDS011;49573;47.682;9.170;2024-01-30T19:35:31;10.07;;;7.03;;
63444;SDS011;49573;47.682;9.170;2024-01-30T19:38:17;10.05;;;7.63;;
63444;SDS011;49573;47.682;9.170;2024-01-30T19:41:05;11.30;;;7.97;;
63444;SDS011;49573;47.682;9.170;2024-01-30T19:43:52;10.20;;;7.50;;
63444;SDS011;49573;47.682;9.170;2024-01-30T19:46:38;10.63;;;7.40;;
63444;SDS011;49573;47.682;9.170;2024-01-30T19:49:24;9.85;;;6.85;;
63444;SDS011;49573;47.682;9.170;2024-01-30T19:52:10;9.57;;;6.72;;
63444;SDS011;49573;47.682;9.170;2024-01-30T19:54:57;10.13;;;6.70;;
63444;SDS011;49573;47.682;9.170;2024-01-30T19:57:45;8.18;;;6.68;;
63444;SDS011;49573;47.682;9.170;2024-01-30T20:00:31;8.68;;;6.55;;
63444;SDS011;49573;47.682;9.170;2024-01-30T20:03:17;10.70;;;6.85;;
63444;SDS011;49573;47.682;9.170;2024-01-30T20:06:03;10.30;;;7.68;;
63444;SDS011;49573;47.682;9.170;2024-01-30T20:08:49;10.47;;;7.70;;
63444;SDS011;49573;47.682;9.170;2024-01-30T20:11:35;10.73;;;7.80;;
63444;SDS011;49573;47.682;9.170;2024-01-30T20:14:23;10.68;;;7.30;;
63444;SDS011;49573;47.682;9.170;2024-01-30T20:17:09;9.50;;;6.57;;
63444;SDS011;49573;47.682;9.170;2024-01-30T20:19:58;9.10;;;6.82;;
63444;SDS011;49573;47.682;9.170;2024-01-30T20:22:44;9.82;;;6.63;;
63444;SDS011;49573;47.682;9.170;2024-01-30T20:25:34;9.93;;;7.32;;
63444;SDS011;49573;47.682;9.170;2024-01-30T20:28:20;10.23;;;7.55;;
63444;SDS011;49573;47.682;9.170;2024-01-30T20:31:07;11.70;;;8.05;;
63444;SDS011;49573;47.682;9.170;2024-01-30T20:33:56;10.48;;;7.38;;
63444;SDS011;49573;47.682;9.170;2024-01-30T20:36:42;9.93;;;7.05;;
63444;SDS011;49573;47.682;9.170;2024-01-30T20:39:33;15.07;;;8.10;;
63444;SDS011;49573;47.682;9.170;2024-01-30T20:42:19;8.73;;;6.68;;
63444;SDS011;49573;47.682;9.170;2024-01-30T20:45:05;11.85;;;7.95;;
63444;SDS011;49573;47.682;9.170;2024-01-30T20:47:53;11.00;;;7.57;;
63444;SDS011;49573;47.682;9.170;2024-01-30T20:50:39;10.70;;;7.68;;
63444;SDS011;49573;47.682;9.170;2024-01-30T20:53:25;11.75;;;7.72;;
63444;SDS011;49573;47.682;9.170;2024-01-30T20:56:11;10.87;;;7.70;;
63444;SDS011;49573;47.682;9.170;2024-01-30T20:58:58;9.05;;;7.05;;
63444;SDS011;49573;47.682;9.170;2024-01-30T21:01:44;14.20;;;8.35;;
63444;SDS011;49573;47.682;9.170;2024-01-30T21:04:31;10.38;;;7.50;;
63444;SDS011;49573;47.682;9.170;2024-01-30T21:07:17;9.10;;;6.72;;
63444;SDS011;49573;47.682;9.170;2024-01-30T21:10:03;10.27;;;7.60;;
63444;SDS011;49573;47.682;9.170;2024-01-30T21:12:50;10.80;;;6.50;;
63444;SDS011;49573;47.682;9.170;2024-01-30T21:15:36;9.20;;;6.40;;
63444;SDS011;49573;47.682;9.170;2024-01-30T21:18:22;9.23;;;6.65;;
63444;SDS011;49573;47.682;9.170;2024-01-30T21:21:09;9.70;;;6.80;;
63444;SDS011;49573;47.682;9.170;2024-01-30T21:23:56;9.48;;;6.88;;
63444;SDS011;49573;47.682;9.170;2024-01-30T21:26:42;10.00;;;7.15;;
63444;SDS011;49573;47.682;9.170;2024-01-30T21:29:28;10.43;;;6.65;;
63444;SDS011;49573;47.682;9.170;2024-01-30T21:32:15;10.30;;;6.70;;
63444;SDS011;49573;47.682;9.170;2024-01-30T21:35:01;9.85;;;6.78;;
63444;SDS011;49573;47.682;9.170;2024-01-30T21:37:48;12.27;;;6.67;;
63444;SDS011;49573;47.682;9.170;2024-01-30T21:40:34;10.32;;;6.68;;
63444;SDS011;49573;47.682;9.170;2024-01-30T21:43:20;9.40;;;6.70;;
63444;SDS011;49573;47.682;9.170;2024-01-30T21:46:06;9.13;;;6.20;;
63444;SDS011;49573;47.682;9.170;2024-01-30T21:48:53;10.02;;;6.75;;
63444;SDS011;49573;47.682;9.170;2024-01-30T21:51:40;9.82;;;6.88;;
63444;SDS011;49573;47.682;9.170;2024-01-30T21:54:28;10.25;;;6.18;;
63444;SDS011;49573;47.682;9.170;2024-01-30T21:57:14;10.88;;;7.43;;
63444;SDS011;49573;47.682;9.170;2024-01-30T22:00:00;9.68;;;6.55;;
63444;SDS011;49573;47.682;9.170;2024-01-30T22:02:46;9.93;;;6.60;;
63444;SDS011;49573;47.682;9.170;2024-01-30T22:05:32;12.07;;;7.18;;
63444;SDS011;49573;47.682;9.170;2024-01-30T22:08:18;12.45;;;7.10;;
63444;SDS011;49573;47.682;9.170;2024-01-30T22:11:06;10.95;;;7.68;;
63444;SDS011;49573;47.682;9.170;2024-01-30T22:13:52;10.00;;;7.10;;
63444;SDS011;49573;47.682;9.170;2024-01-30T22:16:38;9.73;;;7.25;;
63444;SDS011;49573;47.682;9.170;2024-01-30T22:19:24;11.80;;;7.97;;
63444;SDS011;49573;47.682;9.170;2024-01-30T22:22:10;10.55;;;7.78;;
63444;SDS011;49573;47.682;9.170;2024-01-30T22:24:56;10.35;;;7.47;;
63444;SDS011;49573;47.682;9.170;2024-01-30T22:27:43;12.05;;;8.25;;
63444;SDS011;49573;47.682;9.170;2024-01-30T22:30:29;11.52;;;7.70;;
63444;SDS011;49573;47.682;9.170;2024-01-30T22:33:15;10.48;;;7.25;;
63444;SDS011;49573;47.682;9.170;2024-01-30T22:36:02;10.18;;;6.75;;
63444;SDS011;49573;47.682;9.170;2024-01-30T22:38:48;12.63;;;7.50;;
63444;SDS011;49573;47.682;9.170;2024-01-30T22:41:34;12.43;;;7.15;;
63444;SDS011;49573;47.682;9.170;2024-01-30T22:44:21;13.93;;;8.40;;
63444;SDS011;49573;47.682;9.170;2024-01-30T22:47:07;14.15;;;8.13;;
63444;SDS011;49573;47.682;9.170;2024-01-30T22:49:53;13.65;;;8.48;;
63444;SDS011;49573;47.682;9.170;2024-01-30T22:52:40;16.50;;;9.63;;
63444;SDS011;49573;47.682;9.170;2024-01-30T22:55:25;16.65;;;10.43;;
63444;SDS011;49573;47.682;9.170;2024-01-30T22:58:12;14.27;;;9.30;;
63444;SDS011;49573;47.682;9.170;2024-01-30T23:01:00;18.08;;;10.43;;
63444;SDS011;49573;47.682;9.170;2024-01-30T23:03:46;20.95;;;11.50;;
63444;SDS011;49573;47.682;9.170;2024-01-30T23:06:32;19.58;;;11.93;;
63444;SDS011;49573;47.682;9.170;2024-01-30T23:09:18;21.08;;;11.43;;
63444;SDS011;49573;47.682;9.170;2024-01-30T23:12:04;21.98;;;12.82;;
63444;SDS011;49573;47.682;9.170;2024-01-30T23:14:50;21.85;;;11.90;;
63444;SDS011;49573;47.682;9.170;2024-01-30T23:17:39;45.33;;;15.35;;
63444;SDS011;49573;47.682;9.170;2024-01-30T23:20:25;40.80;;;14.90;;
63444;SDS011;49573;47.682;9.170;2024-01-30T23:23:11;25.27;;;14.57;;
63444;SDS011;49573;47.682;9.170;2024-01-30T23:25:57;23.35;;;13.07;;
63444;SDS011;49573;47.682;9.170;2024-01-30T23:28:43;117.95;;;15.32;;
63444;SDS011;49573;47.682;9.170;2024-01-30T23:31:29;55.83;;;13.38;;
63444;SDS011;49573;47.682;9.170;2024-01-30T23:34:17;31.60;;;12.50;;
63444;SDS011;49573;47.682;9.170;2024-01-30T23:37:03;129.52;;;18.30;;
63444;SDS011;49573;47.682;9.170;2024-01-30T23:39:49;37.40;;;12.70;;
63444;SDS011;49573;47.682;9.170;2024-01-30T23:42:35;27.67;;;13.30;;
63444;SDS011;49573;47.682;9.170;2024-01-30T23:45:21;76.15;;;14.70;;
63444;SDS011;49573;47.682;9.170;2024-01-30T23:48:07;35.40;;;13.07;;
63444;SDS011;49573;47.682;9.170;2024-01-30T23:50:55;93.13;;;15.57;;
63444;SDS011;49573;47.682;9.170;2024-01-30T23:53:41;79.13;;;14.43;;
63444;SDS011;49573;47.682;9.170;2024-01-30T23:56:27;56.80;;;14.18;;
63444;SDS011;49573;47.682;9.170;2024-01-30T23:59:13;23.25;;;11.43;;
